Terminal Aerodrome Forecast
Issued by NWS

Home | Current Version | Previous Version | Text Only | Print | Product List | Glossary On
Versions: 1 2 3 4 5 6 7 8 9 10 11 12 13 14
240
FTUS43 KMPX 210520
TAFRWF
TAF
KRWF 210520Z 2106/2206 29011KT P6SM SKC
     FM210800 24005KT 4SM BR FEW010
      TEMPO 2109/2113 2SM BR BKN010
     FM211400 19009KT P6SM SCT150
     FM212000 22012KT P6SM SCT250
     FM220000 23007KT P6SM SCT250=

USA.gov is the U.S. government's official web portal to all federal, state and local government web resources and services.